Sign-in with your pilot id or email, or register

ICAO: EDDH Name / Country: Hamburg / Germany
Latitude: 53.6304 Longitude: 9.98823
Total Arrivals:
Strict Standards: Non-static method AirportData::getarrflights() should not be called statically, assuming $this from incompatible context in /var/www/customers/vh-7192/web/home/phpvms/core/templates/airport_info.tpl on line 18
0
Total Departures:
Strict Standards: Non-static method AirportData::getdeptflights() should not be called statically, assuming $this from incompatible context in /var/www/customers/vh-7192/web/home/phpvms/core/templates/airport_info.tpl on line 21
0
Latest Arrival: (-) Latest Departure: (-)
Metar: EDDH 172220Z 29005KT CAVOK 09/06 Q1018 NOSIG
More info

Charts for EDDH


NOTAM


Warning: file_get_contents(http://api.vateud.net/notams/EDDH.json): failed to open stream: Redirection limit reached, aborting in /var/www/customers/vh-7192/web/home/phpvms/core/common/NOTAMSData.class.php on line 18

Warning: Invalid argument supplied for foreach() in /var/www/customers/vh-7192/web/home/phpvms/core/common/NOTAMSData.class.php on line 22

Hamburg